Time;durP1;ratioP1;P1;durP2;ratioP2;P2;SDS_P1;SDS_P2;PMS_P1;PMS_P2;Temp;Humidity;BMP_temperature;BMP_pressure;BME280_temperature;BME280_humidity;BME280_pressure;Samples;Min_cycle;Max_cycle;Signal;HPM_P1;HPM_P2
2023/07/16 00:01:54;;;;;;;8.25;1.92;;;;;;;;;;4967625;28;98520;-77
2023/07/16 00:04:21;;;;;;;8.38;1.80;;;;;;;;;;4944911;28;101290;-77
2023/07/16 00:06:47;;;;;;;8.18;1.95;;;;;;;;;;4952354;28;98229;-77
2023/07/16 00:09:14;;;;;;;6.45;1.98;;;;;;;;;;4962664;28;98804;-77
2023/07/16 00:11:40;;;;;;;7.30;1.80;;;;;;;;;;4955980;28;99162;-76
2023/07/16 00:14:07;;;;;;;7.57;2.08;;;;;;;;;;4967024;28;98446;-76
2023/07/16 00:16:33;;;;;;;9.30;1.92;;;;;;;;;;4958493;28;100873;-77
2023/07/16 00:19:00;;;;;;;7.30;2.00;;;;;;;;;;4958535;28;98234;-77
2023/07/16 00:21:27;;;;;;;6.13;1.95;;;;;;;;;;4960186;28;98746;-77
2023/07/16 00:23:53;;;;;;;5.28;1.80;;;;;;;;;;4958431;28;99237;-76
2023/07/16 00:26:20;;;;;;;6.72;1.80;;;;;;;;;;4960504;28;97474;-76
2023/07/16 00:28:46;;;;;;;8.15;2.03;;;;;;;;;;4958571;28;100468;-77
2023/07/16 00:31:13;;;;;;;6.93;2.22;;;;;;;;;;4958209;28;101356;-77
2023/07/16 00:33:40;;;;;;;6.00;1.88;;;;;;;;;;4960957;28;99058;-76
2023/07/16 00:36:07;;;;;;;6.88;2.00;;;;;;;;;;4958780;28;98685;-76
2023/07/16 00:38:34;;;;;;;7.40;2.03;;;;;;;;;;4967285;28;98110;-76
2023/07/16 00:41:00;;;;;;;8.25;1.80;;;;;;;;;;4961213;28;98415;-76
2023/07/16 00:43:27;;;;;;;6.88;1.80;;;;;;;;;;4957988;28;98813;-77
2023/07/16 00:45:54;;;;;;;9.85;2.40;;;;;;;;;;4958534;28;98110;-77
2023/07/16 00:48:20;;;;;;;10.45;2.63;;;;;;;;;;4959569;28;98793;-77
2023/07/16 00:50:47;;;;;;;7.55;2.40;;;;;;;;;;4958209;28;100449;-76
2023/07/16 00:53:13;;;;;;;7.93;2.03;;;;;;;;;;4957930;28;98169;-76
2023/07/16 00:55:40;;;;;;;6.63;2.00;;;;;;;;;;4956889;28;98416;-75
2023/07/16 00:58:07;;;;;;;8.73;2.10;;;;;;;;;;4957304;28;98960;-75
2023/07/16 01:00:38;;;;;;;6.07;1.90;;;;;;;;;;4959577;28;98984;-76
2023/07/16 01:03:05;;;;;;;7.72;2.13;;;;;;;;;;4957445;28;101266;-76
2023/07/16 01:05:54;;;;;;;8.95;2.20;;;;;;;;;;4956570;28;98801;-76
2023/07/16 01:08:25;;;;;;;11.82;2.38;;;;;;;;;;4959527;28;98513;-75
2023/07/16 01:10:52;;;;;;;8.25;2.00;;;;;;;;;;4957185;28;99035;-77
2023/07/16 01:13:19;;;;;;;7.65;2.25;;;;;;;;;;4958974;28;98123;-76
2023/07/16 01:15:45;;;;;;;7.78;2.40;;;;;;;;;;4959743;28;98411;-75
2023/07/16 01:18:12;;;;;;;;;;;;;;;;;;4961451;28;101323;-77
2023/07/16 01:20:39;;;;;;;8.30;2.30;;;;;;;;;;4958992;28;127876;-76
2023/07/16 01:23:09;;;;;;;8.15;2.20;;;;;;;;;;4958052;28;100907;-77
2023/07/16 01:25:42;;;;;;;10.30;2.53;;;;;;;;;;4959307;28;98156;-77
2023/07/16 01:28:08;;;;;;;8.10;2.25;;;;;;;;;;4957727;28;100968;-75
2023/07/16 01:30:37;;;;;;;8.45;2.53;;;;;;;;;;4957472;28;98631;-75
2023/07/16 01:33:04;;;;;;;8.88;2.42;;;;;;;;;;4957433;28;98639;-76
2023/07/16 01:35:31;;;;;;;;;;;;;;;;;;4968293;28;100292;-76
2023/07/16 01:37:57;;;;;;;10.55;2.40;;;;;;;;;;4959467;28;102926;-75
2023/07/16 01:40:24;;;;;;;10.00;2.55;;;;;;;;;;4961707;28;97458;-76
2023/07/16 01:42:50;;;;;;;10.48;2.60;;;;;;;;;;4970786;28;101600;-76
2023/07/16 01:45:17;;;;;;;7.68;2.58;;;;;;;;;;4953145;28;98388;-76
2023/07/16 01:48:03;;;;;;;9.13;2.50;;;;;;;;;;4958379;28;98848;-77
2023/07/16 01:50:30;;;;;;;9.88;2.78;;;;;;;;;;4953779;28;99067;-77
2023/07/16 01:52:57;;;;;;;9.75;2.90;;;;;;;;;;4971309;28;98639;-76
2023/07/16 01:55:24;;;;;;;8.85;2.90;;;;;;;;;;4957726;28;99769;-76
2023/07/16 01:57:51;;;;;;;8.98;2.33;;;;;;;;;;4956284;28;101360;-77
2023/07/16 02:00:17;;;;;;;7.18;2.40;;;;;;;;;;4957133;28;98398;-77
2023/07/16 02:02:50;;;;;;;9.57;2.85;;;;;;;;;;4959734;28;100934;-78
2023/07/16 02:05:16;;;;;;;9.57;2.78;;;;;;;;;;4959327;28;97325;-77
2023/07/16 02:07:43;;;;;;;7.05;2.60;;;;;;;;;;4958436;28;98450;-76
2023/07/16 02:10:09;;;;;;;10.55;2.92;;;;;;;;;;4956645;28;100988;-77
2023/07/16 02:12:36;;;;;;;10.88;2.95;;;;;;;;;;4956240;28;98866;-75
2023/07/16 02:15:02;;;;;;;11.88;3.25;;;;;;;;;;4954012;28;101030;-76
2023/07/16 02:17:34;;;;;;;9.20;2.63;;;;;;;;;;4956485;28;98804;-76
2023/07/16 02:20:00;;;;;;;9.38;2.95;;;;;;;;;;4956915;28;98153;-76
2023/07/16 02:22:27;;;;;;;8.77;2.78;;;;;;;;;;4959228;28;101247;-77
2023/07/16 02:24:56;;;;;;;11.80;3.00;;;;;;;;;;4956960;28;98147;-77
2023/07/16 02:27:22;;;;;;;10.23;2.90;;;;;;;;;;4956249;28;100969;-78
2023/07/16 02:29:49;;;;;;;9.45;2.97;;;;;;;;;;4958441;28;98367;-77
2023/07/16 02:32:15;;;;;;;9.95;2.97;;;;;;;;;;4968293;28;98272;-76
2023/07/16 02:34:42;;;;;;;9.13;2.55;;;;;;;;;;4940690;28;100931;-78
2023/07/16 02:37:08;;;;;;;10.25;3.40;;;;;;;;;;4955957;28;101091;-77
2023/07/16 02:39:35;;;;;;;10.15;2.90;;;;;;;;;;4957897;28;98079;-76
2023/07/16 02:42:01;;;;;;;9.68;2.85;;;;;;;;;;4957745;28;99460;-76
2023/07/16 02:44:28;;;;;;;9.68;2.90;;;;;;;;;;4959536;28;100985;-77
2023/07/16 02:46:55;;;;;;;8.23;2.70;;;;;;;;;;4956319;28;101120;-76
2023/07/16 02:49:22;;;;;;;10.27;3.10;;;;;;;;;;4956114;28;98762;-77
2023/07/16 02:51:48;;;;;;;9.45;2.75;;;;;;;;;;4955606;28;98192;-76
2023/07/16 02:54:15;;;;;;;10.05;3.15;;;;;;;;;;4957214;28;100885;-77
2023/07/16 02:56:41;;;;;;;12.13;3.20;;;;;;;;;;4955608;28;101436;-76
2023/07/16 02:59:08;;;;;;;10.15;2.97;;;;;;;;;;4961948;28;98204;-77
2023/07/16 03:01:35;;;;;;;10.20;3.10;;;;;;;;;;4959604;28;101351;-77
2023/07/16 03:04:01;;;;;;;10.70;3.00;;;;;;;;;;4959340;28;101902;-77
2023/07/16 03:06:29;;;;;;;9.32;3.05;;;;;;;;;;4963095;28;98542;-76
2023/07/16 03:08:56;;;;;;;8.23;3.00;;;;;;;;;;4960766;28;98546;-77
2023/07/16 03:11:23;;;;;;;8.15;2.90;;;;;;;;;;4961375;28;98789;-76
2023/07/16 03:13:49;;;;;;;9.43;3.05;;;;;;;;;;4962703;28;99469;-77
2023/07/16 03:16:16;;;;;;;10.38;2.80;;;;;;;;;;4959221;28;100232;-76
2023/07/16 03:18:44;;;;;;;9.88;2.78;;;;;;;;;;4961470;28;97925;-76
2023/07/16 03:21:11;;;;;;;8.48;2.42;;;;;;;;;;4959380;28;100425;-77
2023/07/16 03:23:38;;;;;;;8.10;2.78;;;;;;;;;;4959099;28;101210;-77
2023/07/16 03:26:04;;;;;;;10.82;2.80;;;;;;;;;;4959226;28;99403;-76
2023/07/16 03:28:32;;;;;;;9.65;3.22;;;;;;;;;;4962067;28;101916;-76
2023/07/16 03:31:01;;;;;;;10.13;2.80;;;;;;;;;;4959490;28;98311;-76
2023/07/16 03:33:28;;;;;;;10.57;3.00;;;;;;;;;;4959272;28;101293;-76
2023/07/16 03:35:55;;;;;;;8.07;2.60;;;;;;;;;;4958794;28;101467;-77
2023/07/16 03:38:22;;;;;;;8.82;2.70;;;;;;;;;;4960663;28;98353;-77
2023/07/16 03:40:49;;;;;;;8.30;2.60;;;;;;;;;;4963382;28;101005;-77
2023/07/16 03:43:16;;;;;;;8.00;2.50;;;;;;;;;;4966220;28;98092;-76
2023/07/16 03:45:43;;;;;;;9.73;2.42;;;;;;;;;;4959134;28;98273;-77
2023/07/16 03:48:10;;;;;;;8.65;2.75;;;;;;;;;;4946758;28;101154;-76
2023/07/16 03:50:37;;;;;;;7.65;2.45;;;;;;;;;;4958085;28;102399;-76
2023/07/16 03:53:03;;;;;;;11.50;2.83;;;;;;;;;;4951478;28;99208;-76
2023/07/16 03:55:30;;;;;;;8.38;2.97;;;;;;;;;;4959907;28;98801;-77
2023/07/16 03:57:56;;;;;;;9.43;3.13;;;;;;;;;;4958331;28;98447;-77
2023/07/16 04:00:23;;;;;;;9.43;3.00;;;;;;;;;;4958518;28;101001;-76
2023/07/16 04:02:51;;;;;;;7.43;2.80;;;;;;;;;;4941810;28;101616;-76
2023/07/16 04:05:18;;;;;;;9.35;2.83;;;;;;;;;;4958627;28;98598;-76
2023/07/16 04:07:49;;;;;;;9.52;2.67;;;;;;;;;;4943307;28;101315;-76
2023/07/16 04:10:15;;;;;;;9.88;3.13;;;;;;;;;;4960626;28;98871;-77
2023/07/16 04:12:42;;;;;;;7.90;2.78;;;;;;;;;;4961045;28;98258;-76
2023/07/16 04:15:11;;;;;;;6.10;2.38;;;;;;;;;;4967402;28;102166;-76
2023/07/16 04:17:38;;;;;;;8.60;3.03;;;;;;;;;;4953577;28;98634;-76
2023/07/16 04:20:06;;;;;;;10.07;2.80;;;;;;;;;;4958723;28;101602;-76
2023/07/16 04:22:33;;;;;;;11.90;3.42;;;;;;;;;;4957668;28;100841;-76
2023/07/16 04:24:59;;;;;;;;;;;;;;;;;;4962390;28;98426;-76
2023/07/16 04:27:26;;;;;;;10.27;3.35;;;;;;;;;;4942693;28;122413;-76
2023/07/16 04:29:52;;;;;;;10.25;3.30;;;;;;;;;;4940706;28;101278;-76
2023/07/16 04:32:19;;;;;;;9.73;3.33;;;;;;;;;;4973836;28;97922;-76
2023/07/16 04:34:45;;;;;;;13.90;3.78;;;;;;;;;;4959021;28;98652;-77
2023/07/16 04:37:12;;;;;;;11.20;3.47;;;;;;;;;;4953917;28;98147;-76
2023/07/16 04:39:38;;;;;;;9.50;3.10;;;;;;;;;;4963620;28;100801;-78
2023/07/16 04:42:05;;;;;;;10.60;3.47;;;;;;;;;;4956329;28;101652;-76
2023/07/16 04:44:31;;;;;;;9.93;3.30;;;;;;;;;;4958207;28;98338;-77
2023/07/16 04:46:58;;;;;;;9.77;3.70;;;;;;;;;;4958983;28;99480;-76
2023/07/16 04:49:24;;;;;;;12.93;3.53;;;;;;;;;;4953079;28;98901;-77
2023/07/16 04:51:51;;;;;;;9.02;3.17;;;;;;;;;;4957427;28;98434;-76
2023/07/16 04:54:17;;;;;;;9.13;3.28;;;;;;;;;;4961031;28;98877;-78
2023/07/16 04:56:44;;;;;;;8.68;3.10;;;;;;;;;;4959963;28;97992;-77
2023/07/16 04:59:10;;;;;;;11.05;3.33;;;;;;;;;;4959290;28;98110;-77
2023/07/16 05:01:37;;;;;;;12.13;4.10;;;;;;;;;;4957295;28;98870;-77
2023/07/16 05:04:03;;;;;;;12.05;3.40;;;;;;;;;;4947225;28;99121;-76
2023/07/16 05:06:30;;;;;;;9.00;3.05;;;;;;;;;;4964349;28;99189;-77
2023/07/16 05:08:57;;;;;;;10.13;3.20;;;;;;;;;;4958573;28;98857;-77
2023/07/16 05:11:25;;;;;;;11.32;3.50;;;;;;;;;;4974001;28;98787;-78
2023/07/16 05:13:51;;;;;;;12.02;3.72;;;;;;;;;;4957303;28;98412;-77
2023/07/16 05:16:18;;;;;;;11.55;3.75;;;;;;;;;;4960366;28;101286;-77
2023/07/16 05:18:45;;;;;;;9.43;3.60;;;;;;;;;;4957436;28;100538;-77
2023/07/16 05:21:11;;;;;;;8.90;3.30;;;;;;;;;;4963432;28;98432;-78
2023/07/16 05:23:38;;;;;;;8.25;3.30;;;;;;;;;;4959053;28;98541;-76
2023/07/16 05:26:04;;;;;;;10.82;3.65;;;;;;;;;;4958794;28;98680;-77
2023/07/16 05:28:31;;;;;;;9.90;3.72;;;;;;;;;;4957554;28;99567;-77
2023/07/16 05:31:01;;;;;;;9.63;3.70;;;;;;;;;;4957572;28;98637;-77
2023/07/16 05:33:28;;;;;;;13.77;3.55;;;;;;;;;;4957744;28;98662;-77
2023/07/16 05:35:55;;;;;;;11.88;3.97;;;;;;;;;;4957330;28;98837;-76
2023/07/16 05:38:21;;;;;;;11.38;3.75;;;;;;;;;;4960095;28;98618;-76
2023/07/16 05:40:48;;;;;;;12.23;3.95;;;;;;;;;;4973272;28;101254;-76
2023/07/16 05:43:14;;;;;;;11.10;4.07;;;;;;;;;;4958371;28;98186;-77
2023/07/16 05:45:41;;;;;;;11.13;4.07;;;;;;;;;;4959087;28;98397;-77
2023/07/16 05:48:07;;;;;;;12.85;4.22;;;;;;;;;;4939632;28;101190;-76
2023/07/16 05:50:34;;;;;;;11.02;3.90;;;;;;;;;;4958585;28;98430;-76
2023/07/16 05:53:01;;;;;;;12.57;4.57;;;;;;;;;;4957653;28;98771;-77
2023/07/16 05:55:27;;;;;;;8.73;3.70;;;;;;;;;;4957880;28;98833;-76
2023/07/16 05:57:54;;;;;;;10.60;4.05;;;;;;;;;;4958009;28;98299;-77
2023/07/16 06:00:20;;;;;;;11.77;3.85;;;;;;;;;;4959595;28;100612;-76
2023/07/16 06:02:47;;;;;;;9.60;3.67;;;;;;;;;;4957741;28;98330;-77
2023/07/16 06:05:13;;;;;;;11.05;3.85;;;;;;;;;;4958473;28;98461;-77
2023/07/16 06:07:40;;;;;;;9.93;4.10;;;;;;;;;;4957664;28;98897;-77
2023/07/16 06:10:07;;;;;;;12.82;4.35;;;;;;;;;;4958313;28;97669;-77
2023/07/16 06:12:33;;;;;;;12.32;4.28;;;;;;;;;;4957701;28;99065;-76
2023/07/16 06:15:00;;;;;;;10.52;4.07;;;;;;;;;;4956428;28;98952;-78
2023/07/16 06:17:26;;;;;;;11.10;4.38;;;;;;;;;;4955952;28;99110;-78
2023/07/16 06:19:53;;;;;;;10.75;4.10;;;;;;;;;;4961263;28;99546;-77
2023/07/16 06:22:20;;;;;;;12.00;4.20;;;;;;;;;;4956643;28;98136;-77
2023/07/16 06:24:46;;;;;;;10.98;4.05;;;;;;;;;;4958139;28;98830;-76
2023/07/16 06:27:13;;;;;;;14.98;4.15;;;;;;;;;;4956209;28;99864;-76
2023/07/16 06:29:39;;;;;;;11.50;4.30;;;;;;;;;;4958088;28;98196;-76
2023/07/16 06:32:06;;;;;;;10.50;3.70;;;;;;;;;;4955145;28;98481;-77
2023/07/16 06:34:33;;;;;;;12.90;4.63;;;;;;;;;;4950602;28;98147;-76
2023/07/16 06:36:59;;;;;;;10.82;4.32;;;;;;;;;;4941024;28;98939;-76
2023/07/16 06:39:26;;;;;;;10.70;3.58;;;;;;;;;;4935849;28;98474;-78
2023/07/16 06:41:52;;;;;;;10.90;4.00;;;;;;;;;;4941132;28;102085;-77
2023/07/16 06:44:20;;;;;;;;;;;;;;;;;;4959304;28;102284;-77
2023/07/16 06:46:46;;;;;;;10.35;3.22;;;;;;;;;;4946429;28;121402;-77
2023/07/16 06:49:13;;;;;;;12.38;3.53;;;;;;;;;;4958069;28;98653;-77
2023/07/16 06:51:39;;;;;;;9.95;3.88;;;;;;;;;;4952844;28;98514;-77
2023/07/16 06:54:06;;;;;;;10.82;3.90;;;;;;;;;;4957470;28;98572;-77
2023/07/16 06:56:33;;;;;;;9.57;3.80;;;;;;;;;;4957915;28;98548;-78
2023/07/16 06:58:59;;;;;;;10.95;3.60;;;;;;;;;;4947097;28;98455;-77
2023/07/16 07:01:27;;;;;;;9.43;3.65;;;;;;;;;;4938498;28;99587;-77
2023/07/16 07:03:54;;;;;;;9.32;3.72;;;;;;;;;;4959195;28;98247;-77
2023/07/16 07:06:21;;;;;;;9.63;3.42;;;;;;;;;;4956418;28;100276;-78
2023/07/16 07:08:51;;;;;;;9.35;3.60;;;;;;;;;;4957476;28;98186;-78
2023/07/16 07:11:17;;;;;;;8.77;3.28;;;;;;;;;;4955547;28;100533;-77
2023/07/16 07:13:44;;;;;;;8.15;3.28;;;;;;;;;;4955849;28;98744;-78
2023/07/16 07:16:11;;;;;;;8.73;3.33;;;;;;;;;;4957452;28;98405;-78
2023/07/16 07:18:37;;;;;;;9.73;3.72;;;;;;;;;;4947763;28;99348;-77
2023/07/16 07:21:04;;;;;;;11.43;3.22;;;;;;;;;;4943694;28;100772;-77
2023/07/16 07:23:30;;;;;;;9.57;3.17;;;;;;;;;;4957835;28;97369;-78
2023/07/16 07:25:57;;;;;;;8.20;2.97;;;;;;;;;;4958436;28;100529;-77
2023/07/16 07:28:23;;;;;;;10.10;3.40;;;;;;;;;;4957007;28;98746;-77
2023/07/16 07:30:50;;;;;;;9.50;3.67;;;;;;;;;;4941452;28;99379;-77
2023/07/16 07:33:16;;;;;;;10.75;3.78;;;;;;;;;;4954729;28;98660;-77
2023/07/16 07:35:43;;;;;;;9.05;3.28;;;;;;;;;;4955625;28;98598;-77
2023/07/16 07:38:09;;;;;;;8.27;3.33;;;;;;;;;;4956836;28;98425;-77
2023/07/16 07:40:36;;;;;;;10.45;3.30;;;;;;;;;;4956009;28;99240;-76
2023/07/16 07:43:02;;;;;;;10.85;3.60;;;;;;;;;;4953872;28;98210;-77
2023/07/16 07:45:29;;;;;;;10.75;3.35;;;;;;;;;;4945146;28;100924;-77
2023/07/16 07:47:55;;;;;;;8.98;3.35;;;;;;;;;;4961928;28;98467;-76
2023/07/16 07:50:22;;;;;;;11.23;3.90;;;;;;;;;;4959049;28;98737;-77
2023/07/16 07:52:48;;;;;;;10.80;3.42;;;;;;;;;;4956773;28;101157;-77
2023/07/16 07:55:15;;;;;;;10.23;3.50;;;;;;;;;;4957977;28;99548;-77
2023/07/16 07:57:41;;;;;;;9.80;3.17;;;;;;;;;;4958449;28;99430;-77
2023/07/16 08:00:11;;;;;;;8.77;3.22;;;;;;;;;;4958459;28;98603;-77
2023/07/16 08:02:40;;;;;;;8.30;3.47;;;;;;;;;;4958788;28;98565;-77
2023/07/16 08:05:07;;;;;;;8.75;3.28;;;;;;;;;;4957372;28;98480;-76
2023/07/16 08:07:34;;;;;;;;;;;;;;;;;;4958633;28;98834;-77
2023/07/16 08:10:00;;;;;;;7.90;3.17;;;;;;;;;;4967956;28;98468;-77
2023/07/16 08:12:27;;;;;;;9.93;3.40;;;;;;;;;;4959038;28;98042;-77
2023/07/16 08:14:53;;;;;;;8.43;3.63;;;;;;;;;;4959581;28;98377;-77
2023/07/16 08:17:20;;;;;;;8.18;3.10;;;;;;;;;;4959422;28;98864;-76
2023/07/16 08:19:49;;;;;;;8.80;3.63;;;;;;;;;;4958914;28;99259;-76
2023/07/16 08:22:16;;;;;;;7.15;3.28;;;;;;;;;;4974552;28;98312;-76
2023/07/16 08:24:43;;;;;;;8.98;3.33;;;;;;;;;;4958689;28;99173;-76
2023/07/16 08:27:09;;;;;;;7.75;3.10;;;;;;;;;;4957632;28;100975;-76
2023/07/16 08:29:36;;;;;;;8.13;3.10;;;;;;;;;;4961691;28;98409;-76
2023/07/16 08:32:03;;;;;;;9.98;3.53;;;;;;;;;;4957203;28;98776;-77
2023/07/16 08:34:29;;;;;;;7.50;3.10;;;;;;;;;;4958329;28;98461;-77
2023/07/16 08:36:56;;;;;;;7.63;3.15;;;;;;;;;;4953442;28;98472;-76
2023/07/16 08:39:23;;;;;;;9.45;3.15;;;;;;;;;;4959347;28;98818;-77
2023/07/16 08:41:52;;;;;;;8.40;3.47;;;;;;;;;;4957964;28;98660;-76
2023/07/16 08:44:19;;;;;;;7.70;2.95;;;;;;;;;;4949393;28;99507;-76
2023/07/16 08:46:46;;;;;;;7.03;3.13;;;;;;;;;;4958874;28;99574;-76
2023/07/16 08:49:12;;;;;;;8.52;3.80;;;;;;;;;;4960041;28;98832;-76
2023/07/16 08:51:42;;;;;;;10.55;3.60;;;;;;;;;;4960799;28;100362;-76
2023/07/16 08:54:09;;;;;;;6.90;2.97;;;;;;;;;;4959559;28;98377;-76
2023/07/16 08:56:36;;;;;;;7.47;3.17;;;;;;;;;;4958903;28;98813;-76
2023/07/16 08:59:03;;;;;;;8.25;3.35;;;;;;;;;;4957695;28;99680;-76
2023/07/16 09:01:29;;;;;;;8.13;3.35;;;;;;;;;;4959456;28;97833;-77
2023/07/16 09:03:56;;;;;;;7.40;3.28;;;;;;;;;;4960553;28;98148;-77
2023/07/16 09:06:22;;;;;;;8.50;3.30;;;;;;;;;;4968709;28;102225;-76
2023/07/16 09:08:49;;;;;;;7.13;2.85;;;;;;;;;;4958689;28;98930;-76
2023/07/16 09:11:21;;;;;;;7.38;3.20;;;;;;;;;;4958725;28;98965;-76
2023/07/16 09:13:48;;;;;;;7.70;3.20;;;;;;;;;;4960614;28;98817;-76
2023/07/16 09:16:17;;;;;;;7.05;3.33;;;;;;;;;;4958909;28;99943;-76
2023/07/16 09:18:45;;;;;;;9.50;3.60;;;;;;;;;;4957112;28;98926;-76
2023/07/16 09:21:11;;;;;;;8.00;3.53;;;;;;;;;;4958559;28;98200;-77
2023/07/16 09:23:38;;;;;;;6.72;3.10;;;;;;;;;;4957763;28;98423;-77
2023/07/16 09:26:04;;;;;;;8.55;3.17;;;;;;;;;;4958997;28;99366;-77
2023/07/16 09:28:31;;;;;;;7.65;3.35;;;;;;;;;;4973660;28;98292;-77
2023/07/16 09:31:03;;;;;;;9.43;3.40;;;;;;;;;;4958931;28;98421;-78
2023/07/16 09:33:31;;;;;;;7.13;3.10;;;;;;;;;;4957903;28;99912;-78
2023/07/16 09:35:57;;;;;;;7.25;3.03;;;;;;;;;;4961763;28;98240;-78
2023/07/16 09:38:24;;;;;;;7.85;3.38;;;;;;;;;;4958084;28;98718;-78
2023/07/16 09:40:51;;;;;;;;;;;;;;;;;;4958796;28;98073;-78
2023/07/16 09:43:18;;;;;;;7.88;3.05;;;;;;;;;;4959101;28;123770;-77
2023/07/16 09:45:44;;;;;;;8.60;3.10;;;;;;;;;;4958170;28;98566;-77
2023/07/16 09:48:11;;;;;;;8.00;3.28;;;;;;;;;;4960603;28;98571;-78
2023/07/16 09:50:38;;;;;;;8.38;3.30;;;;;;;;;;4957448;28;101566;-77
2023/07/16 09:53:04;;;;;;;;;;;;;;;;;;4958797;28;99131;-78
2023/07/16 09:55:32;;;;;;;7.53;3.47;;;;;;;;;;4974616;28;104797;-78
2023/07/16 09:57:59;;;;;;;8.18;3.50;;;;;;;;;;4961127;28;99506;-78
2023/07/16 10:00:26;;;;;;;8.60;3.40;;;;;;;;;;4956801;28;98160;-78
2023/07/16 10:02:53;;;;;;;8.75;3.38;;;;;;;;;;4958008;28;98873;-78
2023/07/16 10:05:24;;;;;;;7.72;3.30;;;;;;;;;;4956943;28;98840;-78
2023/07/16 10:07:54;;;;;;;8.57;3.10;;;;;;;;;;4957143;28;98093;-77
2023/07/16 10:10:21;;;;;;;8.10;3.13;;;;;;;;;;4957962;28;98768;-77
2023/07/16 10:12:58;;;;;;;7.88;2.85;;;;;;;;;;4956112;28;100272;-78
2023/07/16 10:15:26;;;;;;;7.30;3.05;;;;;;;;;;4958742;28;97647;-77
2023/07/16 10:17:53;;;;;;;8.70;3.30;;;;;;;;;;4957843;28;98150;-78
2023/07/16 10:20:42;;;;;;;8.52;3.30;;;;;;;;;;4960988;28;98810;-78
2023/07/16 10:23:13;;;;;;;7.60;2.95;;;;;;;;;;4956268;28;98968;-77
2023/07/16 10:25:40;;;;;;;8.00;3.30;;;;;;;;;;4957577;28;99786;-78
2023/07/16 10:28:07;;;;;;;8.15;3.30;;;;;;;;;;4957772;28;98063;-78
2023/07/16 10:30:34;;;;;;;6.40;3.10;;;;;;;;;;4969818;28;101004;-78
2023/07/16 10:33:11;;;;;;;8.75;3.50;;;;;;;;;;4957088;28;99134;-77
2023/07/16 10:35:40;;;;;;;8.00;3.38;;;;;;;;;;4958119;28;98183;-77
2023/07/16 10:38:07;;;;;;;7.15;3.10;;;;;;;;;;4957616;28;98749;-77
2023/07/16 10:40:39;;;;;;;8.00;3.15;;;;;;;;;;4959801;28;99751;-78
2023/07/16 10:43:05;;;;;;;7.90;3.22;;;;;;;;;;4957544;28;98046;-78
2023/07/16 10:45:33;;;;;;;7.20;3.10;;;;;;;;;;4956226;28;101110;-78
2023/07/16 10:47:59;;;;;;;;;;;;;;;;;;4940015;28;99077;-78
2023/07/16 10:50:26;;;;;;;7.22;3.08;;;;;;;;;;4957538;28;117890;-78
2023/07/16 10:52:56;;;;;;;6.95;3.10;;;;;;;;;;4957108;28;99179;-78
2023/07/16 10:55:23;;;;;;;8.18;3.05;;;;;;;;;;4956613;28;98091;-79
2023/07/16 10:57:50;;;;;;;8.65;3.40;;;;;;;;;;4961688;28;99476;-78
2023/07/16 11:00:17;;;;;;;7.57;3.40;;;;;;;;;;4957466;28;98785;-78
2023/07/16 11:02:44;;;;;;;7.40;2.97;;;;;;;;;;4960352;28;98266;-78
2023/07/16 11:05:11;;;;;;;9.77;3.80;;;;;;;;;;4956166;28;99670;-78
2023/07/16 11:07:37;;;;;;;7.13;3.03;;;;;;;;;;4957420;28;98118;-78
2023/07/16 11:10:04;;;;;;;6.90;3.00;;;;;;;;;;4961630;28;98824;-78
2023/07/16 11:12:31;;;;;;;7.28;2.90;;;;;;;;;;4953407;28;102232;-78
2023/07/16 11:14:57;;;;;;;8.60;3.13;;;;;;;;;;4956034;28;98520;-78
2023/07/16 11:17:26;;;;;;;7.10;3.10;;;;;;;;;;4956922;28;98413;-76
2023/07/16 11:19:54;;;;;;;8.18;3.20;;;;;;;;;;4958570;28;98841;-77
2023/07/16 11:22:24;;;;;;;6.93;2.90;;;;;;;;;;4960482;28;98140;-78
2023/07/16 11:24:51;;;;;;;8.77;2.95;;;;;;;;;;4965623;28;98625;-76
2023/07/16 11:27:18;;;;;;;7.15;3.08;;;;;;;;;;4969627;28;98349;-77
2023/07/16 11:29:45;;;;;;;7.78;3.40;;;;;;;;;;4959796;28;98774;-77
2023/07/16 11:32:12;;;;;;;6.78;2.90;;;;;;;;;;4959634;28;99072;-77
2023/07/16 11:34:51;;;;;;;6.63;3.05;;;;;;;;;;4958968;28;98305;-78
2023/07/16 11:37:17;;;;;;;6.95;2.80;;;;;;;;;;4952555;28;98783;-78
2023/07/16 11:39:44;;;;;;;7.65;3.15;;;;;;;;;;4970087;28;99269;-77
2023/07/16 11:42:10;;;;;;;7.88;3.10;;;;;;;;;;4957653;28;98511;-79
2023/07/16 11:44:37;;;;;;;6.70;3.05;;;;;;;;;;4953722;28;99213;-78
2023/07/16 11:47:04;;;;;;;7.82;3.25;;;;;;;;;;4955844;28;101302;-78
2023/07/16 11:49:31;;;;;;;6.72;2.88;;;;;;;;;;4958100;28;98882;-77
2023/07/16 11:51:58;;;;;;;6.35;2.80;;;;;;;;;;4969214;28;101354;-76
2023/07/16 11:54:25;;;;;;;7.22;2.80;;;;;;;;;;4949708;28;97888;-77
2023/07/16 11:56:51;;;;;;;6.60;2.63;;;;;;;;;;4955477;28;98247;-77
2023/07/16 11:59:20;;;;;;;5.82;2.55;;;;;;;;;;4948491;28;99134;-77
2023/07/16 12:01:49;;;;;;;5.93;2.55;;;;;;;;;;4957828;28;99033;-77
2023/07/16 12:04:17;;;;;;;7.55;2.70;;;;;;;;;;4948077;28;99150;-77
2023/07/16 12:06:43;;;;;;;5.88;2.42;;;;;;;;;;4954184;28;99220;-77
2023/07/16 12:09:10;;;;;;;6.55;2.50;;;;;;;;;;4964693;28;98063;-77
2023/07/16 12:11:37;;;;;;;6.63;2.63;;;;;;;;;;4971580;28;98794;-77
2023/07/16 12:14:05;;;;;;;5.32;2.25;;;;;;;;;;4959879;28;98156;-76
2023/07/16 12:16:32;;;;;;;5.70;2.45;;;;;;;;;;4960113;28;98579;-77
2023/07/16 12:19:02;;;;;;;6.50;2.50;;;;;;;;;;4959206;28;98185;-77
2023/07/16 12:21:28;;;;;;;6.50;2.30;;;;;;;;;;4962694;28;98246;-77
2023/07/16 12:23:55;;;;;;;5.40;2.20;;;;;;;;;;4958695;28;98414;-78
2023/07/16 12:26:21;;;;;;;6.70;2.60;;;;;;;;;;4960581;28;100201;-78
2023/07/16 12:28:48;;;;;;;8.80;2.40;;;;;;;;;;4959475;28;98290;-77
2023/07/16 12:31:16;;;;;;;5.30;2.17;;;;;;;;;;4963894;28;98521;-77
2023/07/16 12:33:43;;;;;;;7.07;2.70;;;;;;;;;;4959159;28;98742;-78
2023/07/16 12:36:09;;;;;;;6.70;2.40;;;;;;;;;;4953523;28;100904;-76
2023/07/16 12:38:36;;;;;;;7.38;2.40;;;;;;;;;;4954045;28;98672;-77
2023/07/16 12:41:03;;;;;;;7.03;2.42;;;;;;;;;;4950608;28;98290;-77
2023/07/16 12:43:29;;;;;;;7.15;2.28;;;;;;;;;;4950764;28;98671;-77
2023/07/16 12:45:56;;;;;;;7.22;2.30;;;;;;;;;;4959959;28;99368;-77
2023/07/16 12:48:22;;;;;;;8.35;2.30;;;;;;;;;;4960305;28;99331;-76
2023/07/16 12:50:49;;;;;;;7.35;2.00;;;;;;;;;;4964765;28;100312;-76
2023/07/16 12:53:15;;;;;;;5.63;1.88;;;;;;;;;;4956868;28;98234;-76
2023/07/16 12:55:42;;;;;;;5.78;1.80;;;;;;;;;;4957590;28;98570;-77
2023/07/16 12:58:09;;;;;;;6.63;2.05;;;;;;;;;;4958548;28;98897;-77
2023/07/16 13:00:35;;;;;;;4.80;1.80;;;;;;;;;;4938612;28;98924;-77
2023/07/16 13:03:02;;;;;;;7.57;2.10;;;;;;;;;;4971148;28;98636;-77
2023/07/16 13:05:29;;;;;;;6.30;1.98;;;;;;;;;;4957191;28;99434;-77
2023/07/16 13:07:56;;;;;;;6.00;2.05;;;;;;;;;;4959138;28;97388;-77
2023/07/16 13:10:22;;;;;;;7.13;2.00;;;;;;;;;;4954184;28;98487;-78
2023/07/16 13:12:49;;;;;;;5.65;1.70;;;;;;;;;;4958976;28;99098;-79
2023/07/16 13:15:16;;;;;;;6.57;1.85;;;;;;;;;;4971462;28;99976;-78
2023/07/16 13:17:42;;;;;;;5.85;1.88;;;;;;;;;;4954328;28;101468;-78
2023/07/16 13:20:09;;;;;;;6.75;1.80;;;;;;;;;;4951101;28;98280;-78
2023/07/16 13:22:36;;;;;;;7.78;1.80;;;;;;;;;;4957226;28;100659;-78
2023/07/16 13:25:02;;;;;;;5.35;1.55;;;;;;;;;;4955368;28;98757;-78
2023/07/16 13:27:29;;;;;;;6.57;1.60;;;;;;;;;;4959244;28;98420;-78
2023/07/16 13:29:56;;;;;;;5.80;1.90;;;;;;;;;;4955383;28;99303;-77
2023/07/16 13:32:22;;;;;;;6.03;1.65;;;;;;;;;;4954611;28;100573;-78
2023/07/16 13:34:49;;;;;;;4.82;1.40;;;;;;;;;;4955499;28;99052;-78
2023/07/16 13:37:15;;;;;;;5.97;1.67;;;;;;;;;;4957627;28;98947;-78
2023/07/16 13:39:45;;;;;;;8.55;1.88;;;;;;;;;;4966207;28;99913;-77
2023/07/16 13:42:11;;;;;;;5.05;1.77;;;;;;;;;;4939953;28;99332;-78
2023/07/16 13:44:49;;;;;;;7.53;1.83;;;;;;;;;;4951575;28;98769;-77
2023/07/16 13:47:16;;;;;;;6.15;1.70;;;;;;;;;;4955737;28;98218;-77
2023/07/16 13:49:42;;;;;;;6.07;1.70;;;;;;;;;;4950467;28;98676;-80
2023/07/16 13:52:10;;;;;;;7.22;1.60;;;;;;;;;;4956318;28;98759;-81
2023/07/16 13:54:36;;;;;;;5.68;1.60;;;;;;;;;;4958705;28;98493;-80
2023/07/16 13:57:07;;;;;;;6.40;1.75;;;;;;;;;;4968740;28;101120;-80
2023/07/16 13:59:33;;;;;;;7.78;1.90;;;;;;;;;;4958106;28;98709;-80
2023/07/16 14:02:04;;;;;;;5.53;1.48;;;;;;;;;;4948790;28;100500;-79
2023/07/16 14:04:30;;;;;;;7.38;1.70;;;;;;;;;;4955147;28;99931;-80
2023/07/16 14:06:57;;;;;;;5.75;1.70;;;;;;;;;;4963834;28;98732;-80
2023/07/16 14:09:23;;;;;;;5.88;1.80;;;;;;;;;;4952051;28;98475;-80
2023/07/16 14:11:50;;;;;;;5.22;1.58;;;;;;;;;;4944959;28;99276;-81
2023/07/16 14:14:17;;;;;;;6.20;1.45;;;;;;;;;;4951185;28;98214;-81
2023/07/16 14:16:44;;;;;;;5.47;1.40;;;;;;;;;;4945326;28;99122;-81
2023/07/16 14:19:12;;;;;;;4.63;1.50;;;;;;;;;;4955173;28;99609;-81
2023/07/16 14:21:38;;;;;;;5.45;1.48;;;;;;;;;;4949822;28;98608;-80
2023/07/16 14:24:05;;;;;;;7.38;1.60;;;;;;;;;;4957929;28;101553;-79
2023/07/16 14:26:32;;;;;;;5.63;1.50;;;;;;;;;;4956408;28;98216;-81
2023/07/16 14:28:58;;;;;;;4.97;1.48;;;;;;;;;;4957510;28;98977;-80
2023/07/16 14:31:25;;;;;;;6.28;1.70;;;;;;;;;;4944459;28;101430;-80
2023/07/16 14:33:51;;;;;;;4.68;1.40;;;;;;;;;;4944929;28;98625;-78
2023/07/16 14:36:18;;;;;;;5.28;1.67;;;;;;;;;;4956454;28;100686;-81
2023/07/16 14:38:45;;;;;;;7.00;1.70;;;;;;;;;;4962192;28;99711;-80